sensor_id;sensor_type;location;lat;lon;timestamp;pressure;altitude;pressure_sealevel;temperature;humidity
74232;BME280;62590;52.430;4.902;2022-10-28T00:00:49;101486.13;;;14.48;67.85
74232;BME280;62590;52.430;4.902;2022-10-28T00:03:15;101491.84;;;14.35;67.83
74232;BME280;62590;52.430;4.902;2022-10-28T00:05:41;101483.72;;;14.26;67.83
74232;BME280;62590;52.430;4.902;2022-10-28T00:08:06;101484.84;;;14.23;67.82
74232;BME280;62590;52.430;4.902;2022-10-28T00:10:32;101476.94;;;14.31;67.82
74232;BME280;62590;52.430;4.902;2022-10-28T00:12:57;101477.09;;;14.30;67.82
74232;BME280;62590;52.430;4.902;2022-10-28T00:15:23;101470.66;;;14.21;67.82
74232;BME280;62590;52.430;4.902;2022-10-28T00:17:48;101472.38;;;14.22;67.83
74232;BME280;62590;52.430;4.902;2022-10-28T00:20:13;101467.81;;;14.32;67.83
74232;BME280;62590;52.430;4.902;2022-10-28T00:22:40;101461.84;;;14.10;67.82
74232;BME280;62590;52.430;4.902;2022-10-28T00:25:06;101459.16;;;14.10;67.82
74232;BME280;62590;52.430;4.902;2022-10-28T00:27:31;101453.50;;;14.03;67.81
74232;BME280;62590;52.430;4.902;2022-10-28T00:29:57;101456.34;;;14.02;67.81
74232;BME280;62590;52.430;4.902;2022-10-28T00:32:23;101452.06;;;13.99;67.80
74232;BME280;62590;52.430;4.902;2022-10-28T00:34:48;101458.03;;;13.93;67.80
74232;BME280;62590;52.430;4.902;2022-10-28T00:37:13;101454.38;;;13.85;67.79
74232;BME280;62590;52.430;4.902;2022-10-28T00:39:39;101453.41;;;13.76;67.79
74232;BME280;62590;52.430;4.902;2022-10-28T00:42:04;101456.91;;;13.77;67.79
74232;BME280;62590;52.430;4.902;2022-10-28T00:44:59;101454.22;;;13.67;67.78
74232;BME280;62590;52.430;4.902;2022-10-28T00:49:56;101465.72;;;13.69;67.79
74232;BME280;62590;52.430;4.902;2022-10-28T00:52:25;101464.28;;;13.65;67.79
74232;BME280;62590;52.430;4.902;2022-10-28T00:54:52;101460.75;;;13.84;67.80
74232;BME280;62590;52.430;4.902;2022-10-28T00:57:23;101450.41;;;13.98;67.82
74232;BME280;62590;52.430;4.902;2022-10-28T00:59:52;101447.97;;;13.95;67.81
74232;BME280;62590;52.430;4.902;2022-10-28T01:02:18;101449.53;;;13.88;67.81
74232;BME280;62590;52.430;4.902;2022-10-28T01:04:45;101448.97;;;14.04;67.82
74232;BME280;62590;52.430;4.902;2022-10-28T01:07:11;101453.50;;;14.03;67.81
74232;BME280;62590;52.430;4.902;2022-10-28T01:09:38;101446.53;;;14.01;67.81
74232;BME280;62590;52.430;4.902;2022-10-28T01:15:11;101445.25;;;14.05;67.81
74232;BME280;62590;52.430;4.902;2022-10-28T01:18:03;101452.94;;;14.09;67.82
74232;BME280;62590;52.430;4.902;2022-10-28T01:25:57;101438.47;;;13.72;67.79
74232;BME280;62590;52.430;4.902;2022-10-28T01:38:55;101426.28;;;13.87;67.80
74232;BME280;62590;52.430;4.902;2022-10-28T01:41:29;101432.22;;;13.81;67.79
74232;BME280;62590;52.430;4.902;2022-10-28T01:44:34;101430.25;;;13.64;67.78
74232;BME280;62590;52.430;4.902;2022-10-28T01:47:01;101425.72;;;13.65;67.79
74232;BME280;62590;52.430;4.902;2022-10-28T01:49:53;101421.84;;;13.77;67.79
74232;BME280;62590;52.430;4.902;2022-10-28T01:52:23;101415.47;;;13.68;67.78
74232;BME280;62590;52.430;4.902;2022-10-28T01:54:56;101403.41;;;13.82;67.80
74232;BME280;62590;52.430;4.902;2022-10-28T01:57:24;101407.09;;;13.81;67.79
74232;BME280;62590;52.430;4.902;2022-10-28T01:59:52;101402.41;;;13.83;67.79
74232;BME280;62590;52.430;4.902;2022-10-28T02:02:17;101401.28;;;13.85;67.80
74232;BME280;62590;52.430;4.902;2022-10-28T02:04:43;101393.44;;;13.82;67.79
74232;BME280;62590;52.430;4.902;2022-10-28T02:07:08;101388.75;;;13.94;67.81
74232;BME280;62590;52.430;4.902;2022-10-28T02:09:56;101388.03;;;14.01;67.81
74232;BME280;62590;52.430;4.902;2022-10-28T02:12:30;101385.34;;;13.92;67.80
74232;BME280;62590;52.430;4.902;2022-10-28T02:15:01;101383.22;;;13.95;67.80
74232;BME280;62590;52.430;4.902;2022-10-28T02:20:42;101377.66;;;13.97;67.80
74232;BME280;62590;52.430;4.902;2022-10-28T02:24:00;101379.22;;;13.99;67.81
74232;BME280;62590;52.430;4.902;2022-10-28T02:28:47;101381.66;;;14.02;67.81
74232;BME280;62590;52.430;4.902;2022-10-28T02:31:36;101373.41;;;14.04;67.81
74232;BME280;62590;52.430;4.902;2022-10-28T02:34:07;101377.25;;;14.01;67.81
74232;BME280;62590;52.430;4.902;2022-10-28T02:36:37;101385.91;;;13.95;67.79
74232;BME280;62590;52.430;4.902;2022-10-28T02:39:05;101373.28;;;13.96;67.80
74232;BME280;62590;52.430;4.902;2022-10-28T02:41:49;101375.81;;;13.97;67.80
74232;BME280;62590;52.430;4.902;2022-10-28T02:44:17;101374.72;;;13.90;67.79
74232;BME280;62590;52.430;4.902;2022-10-28T02:46:45;101377.81;;;13.95;67.80
74232;BME280;62590;52.430;4.902;2022-10-28T02:49:13;101375.00;;;13.87;67.79
74232;BME280;62590;52.430;4.902;2022-10-28T02:51:45;101377.16;;;13.74;67.78
74232;BME280;62590;52.430;4.902;2022-10-28T02:54:26;101366.47;;;13.82;67.79
74232;BME280;62590;52.430;4.902;2022-10-28T02:57:14;101371.03;;;13.82;67.78
74232;BME280;62590;52.430;4.902;2022-10-28T02:59:40;101361.25;;;13.81;67.79
74232;BME280;62590;52.430;4.902;2022-10-28T03:02:07;101366.22;;;13.85;67.79
74232;BME280;62590;52.430;4.902;2022-10-28T03:04:33;101361.69;;;13.76;67.79
74232;BME280;62590;52.430;4.902;2022-10-28T03:06:58;101355.69;;;13.82;67.80
74232;BME280;62590;52.430;4.902;2022-10-28T03:09:23;101348.06;;;13.78;67.80
74232;BME280;62590;52.430;4.902;2022-10-28T03:11:49;101352.59;;;13.77;67.78
74232;BME280;62590;52.430;4.902;2022-10-28T03:14:14;101346.63;;;13.74;67.78
74232;BME280;62590;52.430;4.902;2022-10-28T03:16:39;101359.00;;;13.76;67.79
74232;BME280;62590;52.430;4.902;2022-10-28T03:19:05;101359.09;;;13.84;67.79
74232;BME280;62590;52.430;4.902;2022-10-28T03:21:30;101352.16;;;13.82;67.80
74232;BME280;62590;52.430;4.902;2022-10-28T03:23:55;101353.84;;;13.83;67.79
74232;BME280;62590;52.430;4.902;2022-10-28T03:26:21;101349.16;;;13.85;67.79
74232;BME280;62590;52.430;4.902;2022-10-28T03:28:46;101342.63;;;13.87;67.80
74232;BME280;62590;52.430;4.902;2022-10-28T03:31:12;101339.78;;;13.89;67.80
74232;BME280;62590;52.430;4.902;2022-10-28T03:33:39;101339.94;;;13.87;67.79
74232;BME280;62590;52.430;4.902;2022-10-28T03:36:04;101336.63;;;13.93;67.80
74232;BME280;62590;52.430;4.902;2022-10-28T03:38:30;101335.94;;;13.91;67.81
74232;BME280;62590;52.430;4.902;2022-10-28T03:40:55;101341.06;;;13.94;67.80
74232;BME280;62590;52.430;4.902;2022-10-28T03:43:21;101331.00;;;13.87;67.79
74232;BME280;62590;52.430;4.902;2022-10-28T03:45:46;101339.34;;;13.84;67.79
74232;BME280;62590;52.430;4.902;2022-10-28T03:48:12;101339.63;;;13.90;67.80
74232;BME280;62590;52.430;4.902;2022-10-28T03:50:37;101330.53;;;13.91;67.81
74232;BME280;62590;52.430;4.902;2022-10-28T03:53:02;101338.78;;;13.90;67.80
74232;BME280;62590;52.430;4.902;2022-10-28T03:55:28;101344.88;;;13.92;67.80
74232;BME280;62590;52.430;4.902;2022-10-28T03:57:53;101334.94;;;13.92;67.80
74232;BME280;62590;52.430;4.902;2022-10-28T04:00:19;101337.34;;;13.95;67.81
74232;BME280;62590;52.430;4.902;2022-10-28T04:02:49;101334.94;;;13.92;67.81
74232;BME280;62590;52.430;4.902;2022-10-28T04:05:15;101338.06;;;13.97;67.80
74232;BME280;62590;52.430;4.902;2022-10-28T04:07:41;101328.69;;;13.92;67.80
74232;BME280;62590;52.430;4.902;2022-10-28T04:10:06;101322.31;;;13.93;67.80
74232;BME280;62590;52.430;4.902;2022-10-28T04:12:32;101323.31;;;13.92;67.80
74232;BME280;62590;52.430;4.902;2022-10-28T04:14:57;101329.41;;;13.94;67.80
74232;BME280;62590;52.430;4.902;2022-10-28T04:17:22;101323.31;;;13.92;67.80
74232;BME280;62590;52.430;4.902;2022-10-28T04:19:48;101322.16;;;13.94;67.80
74232;BME280;62590;52.430;4.902;2022-10-28T04:22:13;101325.56;;;13.96;67.80
74232;BME280;62590;52.430;4.902;2022-10-28T04:24:38;101323.31;;;13.92;67.81
74232;BME280;62590;52.430;4.902;2022-10-28T04:27:04;101324.16;;;13.92;67.81
74232;BME280;62590;52.430;4.902;2022-10-28T04:29:30;101326.00;;;13.92;67.80
74232;BME280;62590;52.430;4.902;2022-10-28T04:31:56;101321.63;;;13.91;67.80
74232;BME280;62590;52.430;4.902;2022-10-28T04:34:21;101319.19;;;13.88;67.80
74232;BME280;62590;52.430;4.902;2022-10-28T04:36:46;101323.88;;;13.86;67.80
74232;BME280;62590;52.430;4.902;2022-10-28T04:39:12;101324.88;;;13.85;67.79
74232;BME280;62590;52.430;4.902;2022-10-28T04:41:37;101323.31;;;13.82;67.79
74232;BME280;62590;52.430;4.902;2022-10-28T04:44:02;101313.38;;;13.83;67.79
74232;BME280;62590;52.430;4.902;2022-10-28T04:46:28;101316.25;;;13.81;67.79
74232;BME280;62590;52.430;4.902;2022-10-28T04:48:53;101317.94;;;13.82;67.78
74232;BME280;62590;52.430;4.902;2022-10-28T04:51:18;101317.22;;;13.80;67.79
74232;BME280;62590;52.430;4.902;2022-10-28T04:53:44;101315.84;;;13.76;67.78
74232;BME280;62590;52.430;4.902;2022-10-28T04:56:09;101308.41;;;13.78;67.80
74232;BME280;62590;52.430;4.902;2022-10-28T04:58:34;101304.63;;;13.71;67.79
74232;BME280;62590;52.430;4.902;2022-10-28T05:01:07;101301.66;;;13.74;67.79
74232;BME280;62590;52.430;4.902;2022-10-28T05:03:33;101305.63;;;13.70;67.79
74232;BME280;62590;52.430;4.902;2022-10-28T05:05:59;101302.06;;;13.70;67.78
74232;BME280;62590;52.430;4.902;2022-10-28T05:08:25;101309.16;;;13.71;67.78
74232;BME280;62590;52.430;4.902;2022-10-28T05:10:50;101304.06;;;13.68;67.78
74232;BME280;62590;52.430;4.902;2022-10-28T05:13:18;101312.31;;;13.66;67.79
74232;BME280;62590;52.430;4.902;2022-10-28T05:15:46;101313.72;;;13.60;67.78
74232;BME280;62590;52.430;4.902;2022-10-28T05:18:12;101313.16;;;13.67;67.78
74232;BME280;62590;52.430;4.902;2022-10-28T05:20:37;101296.41;;;13.63;67.78
74232;BME280;62590;52.430;4.902;2022-10-28T05:23:02;101309.63;;;13.56;67.77
74232;BME280;62590;52.430;4.902;2022-10-28T05:25:28;101306.19;;;13.64;67.79
74232;BME280;62590;52.430;4.902;2022-10-28T05:27:57;101304.94;;;13.58;67.78
74232;BME280;62590;52.430;4.902;2022-10-28T05:30:23;101300.97;;;13.53;67.77
74232;BME280;62590;52.430;4.902;2022-10-28T05:32:48;101304.63;;;13.52;67.78
74232;BME280;62590;52.430;4.902;2022-10-28T05:35:14;101307.78;;;13.57;67.77
74232;BME280;62590;52.430;4.902;2022-10-28T05:37:39;101303.66;;;13.53;67.78
74232;BME280;62590;52.430;4.902;2022-10-28T05:40:05;101300.81;;;13.54;67.77
74232;BME280;62590;52.430;4.902;2022-10-28T05:42:31;101295.13;;;13.57;67.78
74232;BME280;62590;52.430;4.902;2022-10-28T05:44:56;101305.66;;;13.51;67.77
74232;BME280;62590;52.430;4.902;2022-10-28T05:47:21;101312.63;;;13.53;67.77
74232;BME280;62590;52.430;4.902;2022-10-28T05:49:47;101298.41;;;13.51;67.77
74232;BME280;62590;52.430;4.902;2022-10-28T05:52:12;101300.25;;;13.51;67.77
74232;BME280;62590;52.430;4.902;2022-10-28T05:54:37;101302.41;;;13.47;67.76
74232;BME280;62590;52.430;4.902;2022-10-28T05:57:03;101311.34;;;13.48;67.77
74232;BME280;62590;52.430;4.902;2022-10-28T05:59:28;101313.75;;;13.41;67.76
74232;BME280;62590;52.430;4.902;2022-10-28T06:01:53;101304.22;;;13.47;67.77
74232;BME280;62590;52.430;4.902;2022-10-28T06:04:19;101302.53;;;13.46;67.77
74232;BME280;62590;52.430;4.902;2022-10-28T06:06:44;101307.38;;;13.42;67.76
74232;BME280;62590;52.430;4.902;2022-10-28T06:09:09;101305.81;;;13.40;67.77
74232;BME280;62590;52.430;4.902;2022-10-28T06:11:35;101303.38;;;13.46;67.77
74232;BME280;62590;52.430;4.902;2022-10-28T06:14:00;101314.47;;;13.43;67.76
74232;BME280;62590;52.430;4.902;2022-10-28T06:16:26;101307.66;;;13.39;67.77
74232;BME280;62590;52.430;4.902;2022-10-28T06:18:51;101305.81;;;13.40;67.77
74232;BME280;62590;52.430;4.902;2022-10-28T06:21:17;101300.84;;;13.35;67.76
74232;BME280;62590;52.430;4.902;2022-10-28T06:23:42;101314.31;;;13.35;67.75
74232;BME280;62590;52.430;4.902;2022-10-28T06:26:08;101315.47;;;13.33;67.76
74232;BME280;62590;52.430;4.902;2022-10-28T06:28:33;101316.03;;;13.36;67.76
74232;BME280;62590;52.430;4.902;2022-10-28T06:31:05;101309.47;;;13.39;67.77
74232;BME280;62590;52.430;4.902;2022-10-28T06:33:31;101313.47;;;13.35;67.76
74232;BME280;62590;52.430;4.902;2022-10-28T06:35:58;101315.47;;;13.33;67.76
74232;BME280;62590;52.430;4.902;2022-10-28T06:38:24;101319.84;;;13.34;67.76
74232;BME280;62590;52.430;4.902;2022-10-28T06:40:50;101316.28;;;13.33;67.76
74232;BME280;62590;52.430;4.902;2022-10-28T06:43:15;101316.19;;;13.35;67.77
74232;BME280;62590;52.430;4.902;2022-10-28T06:45:40;101301.13;;;13.32;67.75
74232;BME280;62590;52.430;4.902;2022-10-28T06:48:06;101313.47;;;13.35;67.75
74232;BME280;62590;52.430;4.902;2022-10-28T06:50:33;101318.16;;;13.33;67.77
74232;BME280;62590;52.430;4.902;2022-10-28T06:52:59;101316.28;;;13.33;67.77
74232;BME280;62590;52.430;4.902;2022-10-28T06:55:26;101312.47;;;13.36;67.77
74232;BME280;62590;52.430;4.902;2022-10-28T06:57:51;101306.22;;;13.35;67.76
74232;BME280;62590;52.430;4.902;2022-10-28T07:00:17;101307.94;;;13.36;67.75
74232;BME280;62590;52.430;4.902;2022-10-28T07:02:43;101310.91;;;13.33;67.77
74232;BME280;62590;52.430;4.902;2022-10-28T07:05:08;101318.00;;;13.34;67.76
74232;BME280;62590;52.430;4.902;2022-10-28T07:07:34;101320.97;;;13.41;67.76
74232;BME280;62590;52.430;4.902;2022-10-28T07:10:04;101317.88;;;13.36;67.76
74232;BME280;62590;52.430;4.902;2022-10-28T07:12:30;101317.16;;;13.34;67.76
74232;BME280;62590;52.430;4.902;2022-10-28T07:14:55;101321.13;;;13.39;67.76
74232;BME280;62590;52.430;4.902;2022-10-28T07:17:20;101307.78;;;13.38;67.75
74232;BME280;62590;52.430;4.902;2022-10-28T07:19:46;101325.09;;;13.35;67.76
74232;BME280;62590;52.430;4.902;2022-10-28T07:22:11;101329.66;;;13.35;67.75
74232;BME280;62590;52.430;4.902;2022-10-28T07:24:36;101331.19;;;13.37;67.77
74232;BME280;62590;52.430;4.902;2022-10-28T07:27:02;101335.31;;;13.41;67.76
74232;BME280;62590;52.430;4.902;2022-10-28T07:29:27;101331.50;;;13.44;67.78
74232;BME280;62590;52.430;4.902;2022-10-28T07:31:53;101331.75;;;13.50;67.76
74232;BME280;62590;52.430;4.902;2022-10-28T07:34:19;101330.47;;;13.54;67.78
74232;BME280;62590;52.430;4.902;2022-10-28T07:36:48;101338.41;;;13.56;67.77
74232;BME280;62590;52.430;4.902;2022-10-28T07:39:14;101336.00;;;13.63;67.78
74232;BME280;62590;52.430;4.902;2022-10-28T07:41:40;101333.16;;;13.64;67.79
74232;BME280;62590;52.430;4.902;2022-10-28T07:44:05;101340.84;;;13.69;67.78
74232;BME280;62590;52.430;4.902;2022-10-28T07:46:32;101335.13;;;13.72;67.79
74232;BME280;62590;52.430;4.902;2022-10-28T07:48:57;101330.72;;;13.80;67.79
74232;BME280;62590;52.430;4.902;2022-10-28T07:51:23;101337.66;;;13.83;67.79
74232;BME280;62590;52.430;4.902;2022-10-28T07:53:48;101334.97;;;13.83;67.79
74232;BME280;62590;52.430;4.902;2022-10-28T07:56:13;101341.94;;;13.85;67.80
74232;BME280;62590;52.430;4.902;2022-10-28T07:58:40;101339.09;;;13.87;67.79
74232;BME280;62590;52.430;4.902;2022-10-28T08:01:07;101338.06;;;13.88;67.80
74232;BME280;62590;52.430;4.902;2022-10-28T08:03:33;101335.38;;;13.88;67.80
74232;BME280;62590;52.430;4.902;2022-10-28T08:06:01;101341.31;;;13.91;67.81
74232;BME280;62590;52.430;4.902;2022-10-28T08:08:27;101332.41;;;13.91;67.80
74232;BME280;62590;52.430;4.902;2022-10-28T08:10:52;101341.91;;;13.95;67.80
74232;BME280;62590;52.430;4.902;2022-10-28T08:13:17;101353.25;;;13.98;67.81
74232;BME280;62590;52.430;4.902;2022-10-28T08:15:42;101359.38;;;14.00;67.80
74232;BME280;62590;52.430;4.902;2022-10-28T08:18:08;101350.25;;;14.01;67.81
74232;BME280;62590;52.430;4.902;2022-10-28T08:20:33;101345.72;;;14.02;67.80
74232;BME280;62590;52.430;4.902;2022-10-28T08:22:58;101349.13;;;14.04;67.81
74232;BME280;62590;52.430;4.902;2022-10-28T08:25:24;101349.13;;;14.04;67.81
74232;BME280;62590;52.430;4.902;2022-10-28T08:27:49;101348.50;;;14.10;67.82
74232;BME280;62590;52.430;4.902;2022-10-28T08:30:14;101360.16;;;14.10;67.81
74232;BME280;62590;52.430;4.902;2022-10-28T08:32:40;101347.53;;;14.11;67.81
74232;BME280;62590;52.430;4.902;2022-10-28T08:35:06;101353.78;;;14.11;67.81
74232;BME280;62590;52.430;4.902;2022-10-28T08:37:31;101357.75;;;14.17;67.82
74232;BME280;62590;52.430;4.902;2022-10-28T08:39:56;101354.03;;;14.18;67.81
74232;BME280;62590;52.430;4.902;2022-10-28T08:45:11;101348.06;;;14.24;67.81
74232;BME280;62590;52.430;4.902;2022-10-28T08:50:21;101344.09;;;14.28;67.83
74232;BME280;62590;52.430;4.902;2022-10-28T08:54:10;101341.25;;;14.29;67.82
74232;BME280;62590;52.430;4.902;2022-10-28T08:56:18;101345.91;;;14.37;67.83
74232;BME280;62590;52.430;4.902;2022-10-28T08:58:48;101346.59;;;14.39;67.84
74232;BME280;62590;52.430;4.902;2022-10-28T09:01:34;101339.50;;;14.38;67.83
74232;BME280;62590;52.430;4.902;2022-10-28T09:04:04;101336.59;;;14.49;67.84
74232;BME280;62590;52.430;4.902;2022-10-28T09:06:31;101341.31;;;14.47;67.84
74232;BME280;62590;52.430;4.902;2022-10-28T09:08:57;101334.91;;;14.48;67.84
74232;BME280;62590;52.430;4.902;2022-10-28T09:11:35;101331.78;;;14.52;67.85
74232;BME280;62590;52.430;4.902;2022-10-28T09:16:54;101329.31;;;14.59;67.86
74232;BME280;62590;52.430;4.902;2022-10-28T09:22:20;101336.66;;;14.67;67.85
74232;BME280;62590;52.430;4.902;2022-10-28T09:25:00;101338.22;;;14.69;67.85
74232;BME280;62590;52.430;4.902;2022-10-28T09:35:38;101317.56;;;14.95;67.87
74232;BME280;62590;52.430;4.902;2022-10-28T09:38:22;101320.34;;;15.03;67.89
74232;BME280;62590;52.430;4.902;2022-10-28T09:40:55;101327.50;;;15.12;67.88
74232;BME280;62590;52.430;4.902;2022-10-28T09:44:10;101327.66;;;15.11;67.88
74232;BME280;62590;52.430;4.902;2022-10-28T09:46:31;101332.16;;;15.20;67.88
74232;BME280;62590;52.430;4.902;2022-10-28T09:49:02;101334.25;;;15.26;67.89
74232;BME280;62590;52.430;4.902;2022-10-28T09:52:31;101321.66;;;15.34;67.91
74232;BME280;62590;52.430;4.902;2022-10-28T09:54:35;101327.56;;;15.47;67.92
74232;BME280;62590;52.430;4.902;2022-10-28T09:57:02;101307.19;;;15.61;67.93
74232;BME280;62590;52.430;4.902;2022-10-28T09:59:28;101314.16;;;15.64;67.92
74232;BME280;62590;52.430;4.902;2022-10-28T10:01:54;101306.13;;;15.80;67.93
74232;BME280;62590;52.430;4.902;2022-10-28T10:04:21;101313.44;;;15.79;67.93
74232;BME280;62590;52.430;4.902;2022-10-28T10:07:15;101312.38;;;15.98;67.94
74232;BME280;62590;52.430;4.902;2022-10-28T10:09:43;101315.25;;;16.04;67.95
74232;BME280;62590;52.430;4.902;2022-10-28T10:12:10;101316.00;;;16.14;67.96
74232;BME280;62590;52.430;4.902;2022-10-28T10:14:46;101311.88;;;16.02;67.96
74232;BME280;62590;52.430;4.902;2022-10-28T10:17:23;101309.38;;;16.09;67.96
74232;BME280;62590;52.430;4.902;2022-10-28T10:20:26;101303.19;;;16.24;67.96
74232;BME280;62590;52.430;4.902;2022-10-28T10:22:52;101301.34;;;16.25;67.97
74232;BME280;62590;52.430;4.902;2022-10-28T10:30:31;101285.13;;;16.67;67.98
74232;BME280;62590;52.430;4.902;2022-10-28T10:32:58;101285.63;;;16.70;68.00
74232;BME280;62590;52.430;4.902;2022-10-28T10:35:27;101282.06;;;16.70;67.99
74232;BME280;62590;52.430;4.902;2022-10-28T10:37:55;101296.50;;;16.78;68.00
74232;BME280;62590;52.430;4.902;2022-10-28T10:40:24;101298.34;;;16.78;68.00
74232;BME280;62590;52.430;4.902;2022-10-28T10:42:52;101294.75;;;16.69;68.01
74232;BME280;62590;52.430;4.902;2022-10-28T10:45:20;101294.31;;;16.82;68.01
74232;BME280;62590;52.430;4.902;2022-10-28T10:47:46;101297.00;;;16.82;68.00
74232;BME280;62590;52.430;4.902;2022-10-28T10:52:58;101303.25;;;16.82;68.00
74232;BME280;62590;52.430;4.902;2022-10-28T10:55:37;101303.28;;;16.90;68.02
74232;BME280;62590;52.430;4.902;2022-10-28T10:58:04;101306.47;;;16.86;68.00
74232;BME280;62590;52.430;4.902;2022-10-28T11:00:37;101304.13;;;16.99;68.01
74232;BME280;62590;52.430;4.902;2022-10-28T11:03:16;101311.44;;;16.98;68.03
74232;BME280;62590;52.430;4.902;2022-10-28T11:05:54;101297.00;;;16.90;68.00
74232;BME280;62590;52.430;4.902;2022-10-28T11:11:09;101302.47;;;16.98;68.02
74232;BME280;62590;52.430;4.902;2022-10-28T11:13:36;101317.69;;;16.99;68.02
74232;BME280;62590;52.430;4.902;2022-10-28T11:16:15;101308.06;;;16.96;68.01
74232;BME280;62590;52.430;4.902;2022-10-28T11:18:43;101300.59;;;16.98;68.02
74232;BME280;62590;52.430;4.902;2022-10-28T11:21:25;101299.75;;;16.98;68.00
74232;BME280;62590;52.430;4.902;2022-10-28T11:24:16;101298.91;;;17.05;68.02
74232;BME280;62590;52.430;4.902;2022-10-28T11:27:17;101292.97;;;16.94;68.01
74232;BME280;62590;52.430;4.902;2022-10-28T11:29:48;101292.66;;;17.13;68.03
74232;BME280;62590;52.430;4.902;2022-10-28T11:32:18;101289.59;;;17.16;68.03
74232;BME280;62590;52.430;4.902;2022-10-28T11:35:27;101284.03;;;17.17;68.04
74232;BME280;62590;52.430;4.902;2022-10-28T11:38:09;101318.59;;;17.15;68.03
74232;BME280;62590;52.430;4.902;2022-10-28T11:51:46;101322.84;;;17.42;68.05
74232;BME280;62590;52.430;4.902;2022-10-28T11:57:14;101311.50;;;17.47;68.05
74232;BME280;62590;52.430;4.902;2022-10-28T12:02:57;101318.81;;;17.54;68.05
74232;BME280;62590;52.430;4.902;2022-10-28T12:05:46;101323.72;;;17.67;68.06
74232;BME280;62590;52.430;4.902;2022-10-28T12:11:00;101313.03;;;17.73;68.08
74232;BME280;62590;52.430;4.902;2022-10-28T12:13:41;101317.63;;;17.73;68.05
74232;BME280;62590;52.430;4.902;2022-10-28T12:16:46;101320.28;;;17.89;68.08
74232;BME280;62590;52.430;4.902;2022-10-28T12:19:20;101334.91;;;17.88;68.08
74232;BME280;62590;52.430;4.902;2022-10-28T12:22:03;101320.28;;;17.89;68.08
74232;BME280;62590;52.430;4.902;2022-10-28T12:24:34;101313.69;;;17.83;68.07
74232;BME280;62590;52.430;4.902;2022-10-28T12:27:10;101335.41;;;17.83;68.07
74232;BME280;62590;52.430;4.902;2022-10-28T12:29:39;101338.97;;;17.76;68.06
74232;BME280;62590;52.430;4.902;2022-10-28T12:32:12;101351.19;;;17.80;68.07
74232;BME280;62590;52.430;4.902;2022-10-28T12:34:44;101367.84;;;17.77;68.07
74232;BME280;62590;52.430;4.902;2022-10-28T12:37:21;101365.94;;;17.77;68.06
74232;BME280;62590;52.430;4.902;2022-10-28T12:40:03;101365.28;;;17.75;68.07
74232;BME280;62590;52.430;4.902;2022-10-28T12:42:37;101357.16;;;17.75;68.08
74232;BME280;62590;52.430;4.902;2022-10-28T12:45:10;101353.72;;;17.81;68.08
74232;BME280;62590;52.430;4.902;2022-10-28T12:47:56;101354.22;;;17.85;68.07
74232;BME280;62590;52.430;4.902;2022-10-28T12:50:38;101356.94;;;17.85;68.07
74232;BME280;62590;52.430;4.902;2022-10-28T12:58:34;101363.75;;;17.89;68.08
74232;BME280;62590;52.430;4.902;2022-10-28T13:01:13;101365.09;;;17.93;68.08
74232;BME280;62590;52.430;4.902;2022-10-28T13:03:39;101361.03;;;17.89;68.08
74232;BME280;62590;52.430;4.902;2022-10-28T13:19:45;101389.53;;;18.01;68.08
74232;BME280;62590;52.430;4.902;2022-10-28T13:24:57;101376.97;;;18.00;68.10
74232;BME280;62590;52.430;4.902;2022-10-28T13:27:27;101386.31;;;17.97;68.08
74232;BME280;62590;52.430;4.902;2022-10-28T13:29:56;101368.31;;;17.96;68.08
74232;BME280;62590;52.430;4.902;2022-10-28T13:32:29;101374.78;;;17.95;68.08
74232;BME280;62590;52.430;4.902;2022-10-28T13:34:56;101385.63;;;17.95;68.09
74232;BME280;62590;52.430;4.902;2022-10-28T13:37:22;101385.81;;;17.86;68.07
74232;BME280;62590;52.430;4.902;2022-10-28T13:39:49;101388.84;;;17.91;68.08
74232;BME280;62590;52.430;4.902;2022-10-28T13:44:56;101390.38;;;17.93;68.09
74232;BME280;62590;52.430;4.902;2022-10-28T13:52:33;101410.94;;;17.88;68.08
74232;BME280;62590;52.430;4.902;2022-10-28T13:57:45;101404.81;;;17.86;68.08
74232;BME280;62590;52.430;4.902;2022-10-28T14:02:52;101415.69;;;17.94;68.08
74232;BME280;62590;52.430;4.902;2022-10-28T14:08:04;101401.25;;;17.93;68.09
74232;BME280;62590;52.430;4.902;2022-10-28T14:10:35;101411.25;;;17.93;68.09
74232;BME280;62590;52.430;4.902;2022-10-28T14:13:16;101406.00;;;17.83;68.08
74232;BME280;62590;52.430;4.902;2022-10-28T14:15:42;101411.41;;;17.83;68.08
74232;BME280;62590;52.430;4.902;2022-10-28T14:50:00;101442.47;;;17.65;68.05
74232;BME280;62590;52.430;4.902;2022-10-28T14:52:28;101437.19;;;17.63;68.06
74232;BME280;62590;52.430;4.902;2022-10-28T14:54:57;101455.53;;;17.61;68.06
74232;BME280;62590;52.430;4.902;2022-10-28T14:57:28;101450.94;;;17.62;68.08
74232;BME280;62590;52.430;4.902;2022-10-28T14:59:54;101459.25;;;17.60;68.06
74232;BME280;62590;52.430;4.902;2022-10-28T15:02:24;101453.66;;;17.62;68.06
74232;BME280;62590;52.430;4.902;2022-10-28T15:05:11;101458.41;;;17.60;68.06
74232;BME280;62590;52.430;4.902;2022-10-28T15:07:38;101456.88;;;17.57;68.04
74232;BME280;62590;52.430;4.902;2022-10-28T15:10:31;101454.50;;;17.54;68.05
74232;BME280;62590;52.430;4.902;2022-10-28T15:13:00;101459.91;;;17.54;68.06
74232;BME280;62590;52.430;4.902;2022-10-28T15:15:29;101456.53;;;17.52;68.05
74232;BME280;62590;52.430;4.902;2022-10-28T15:17:55;101467.38;;;17.52;68.07
74232;BME280;62590;52.430;4.902;2022-10-28T15:20:28;101473.50;;;17.54;68.06
74232;BME280;62590;52.430;4.902;2022-10-28T15:23:11;101470.94;;;17.53;68.05
74232;BME280;62590;52.430;4.902;2022-10-28T15:25:37;101471.56;;;17.47;68.06
74232;BME280;62590;52.430;4.902;2022-10-28T15:28:02;101486.84;;;17.48;68.06
74232;BME280;62590;52.430;4.902;2022-10-28T15:30:28;101489.88;;;17.44;68.06